createdAt,value
2023-02-12T00:00:08.652Z,4.09
2023-02-12T00:02:38.703Z,3.99
2023-02-12T00:05:08.755Z,3.99
2023-02-12T00:07:38.789Z,4.00
2023-02-12T00:10:09.770Z,4.14
2023-02-12T00:12:39.850Z,4.02
2023-02-12T00:15:10.293Z,4.01
2023-02-12T00:17:40.361Z,4.15
2023-02-12T00:20:11.615Z,4.07
2023-02-12T00:22:41.668Z,4.02
2023-02-12T00:25:13.993Z,3.94
2023-02-12T00:27:44.018Z,3.89
2023-02-12T00:30:14.489Z,3.86
2023-02-12T00:32:47.397Z,3.94
2023-02-12T00:35:17.495Z,4.02
2023-02-12T00:37:47.518Z,4.02
2023-02-12T00:40:15.965Z,3.99
2023-02-12T00:42:44.420Z,4.00
2023-02-12T00:45:12.799Z,3.96
2023-02-12T00:47:41.295Z,3.92
2023-02-12T00:50:10.293Z,4.01
2023-02-12T00:52:38.509Z,3.96
2023-02-12T00:55:09.278Z,3.96
2023-02-12T00:57:39.258Z,3.96
2023-02-12T01:00:10.451Z,3.90
2023-02-12T01:02:40.615Z,3.90
2023-02-12T01:05:10.788Z,3.89
2023-02-12T01:07:41.041Z,3.88
2023-02-12T01:10:12.180Z,3.79
2023-02-12T01:12:42.556Z,3.71
2023-02-12T01:15:13.260Z,3.64
2023-02-12T01:17:43.674Z,3.69
2023-02-12T01:20:18.096Z,3.73
2023-02-12T01:22:48.370Z,3.68
2023-02-12T01:25:20.780Z,3.70
2023-02-12T01:27:54.590Z,3.67
2023-02-12T01:30:24.932Z,3.69
2023-02-12T01:32:55.624Z,3.60
2023-02-12T01:35:25.710Z,3.50
2023-02-12T01:37:58.118Z,3.43
2023-02-12T01:40:28.536Z,3.41
2023-02-12T01:43:03.053Z,3.52
2023-02-12T01:45:54.102Z,3.62
2023-02-12T01:48:33.067Z,3.72
2023-02-12T01:51:05.360Z,3.75
2023-02-12T01:53:55.532Z,3.66
2023-02-12T01:56:26.491Z,3.66
2023-02-12T01:58:57.831Z,3.67
2023-02-12T02:01:33.820Z,3.65
2023-02-12T02:04:23.387Z,3.81
2023-02-12T02:07:03.170Z,4.04
2023-02-12T02:09:38.554Z,4.00
2023-02-12T02:12:30.048Z,3.92
2023-02-12T02:15:04.936Z,3.86
2023-02-12T02:17:56.331Z,3.85
2023-02-12T02:21:09.153Z,3.84
2023-02-12T02:24:00.198Z,3.93
2023-02-12T02:27:02.604Z,3.87
2023-02-12T02:30:09.022Z,3.84
2023-02-12T02:33:15.573Z,3.88
2023-02-12T02:36:26.185Z,3.91
2023-02-12T02:39:54.094Z,3.86
2023-02-12T02:43:09.761Z,3.85
2023-02-12T02:45:59.511Z,3.86
2023-02-12T02:48:50.729Z,3.88
2023-02-12T02:51:33.261Z,3.83
2023-02-12T02:54:17.863Z,3.83
2023-02-12T02:57:03.639Z,3.86
2023-02-12T02:59:49.924Z,3.84
2023-02-12T03:02:38.393Z,3.84
2023-02-12T03:05:26.862Z,3.86
2023-02-12T03:08:24.379Z,3.84
2023-02-12T03:11:12.907Z,3.93
2023-02-12T03:14:26.139Z,3.83
2023-02-12T03:17:32.593Z,3.86
2023-02-12T03:20:26.615Z,3.88
2023-02-12T03:23:11.545Z,3.84
2023-02-12T03:26:09.803Z,3.79
2023-02-12T03:28:41.345Z,3.84
2023-02-12T03:32:06.809Z,3.82
2023-02-12T03:35:04.510Z,3.80
2023-02-12T03:37:44.955Z,3.72
2023-02-12T03:40:37.670Z,3.75
2023-02-12T03:43:39.280Z,3.78
2023-02-12T03:46:47.399Z,3.83
2023-02-12T03:50:03.570Z,3.83
2023-02-12T03:52:35.237Z,3.82
2023-02-12T03:55:08.396Z,3.95
2023-02-12T03:58:01.397Z,3.97
2023-02-12T04:00:31.555Z,4.05
2023-02-12T04:03:01.610Z,4.05
2023-02-12T04:05:31.930Z,4.01
2023-02-12T04:08:09.166Z,3.97
2023-02-12T04:11:31.599Z,4.01
2023-02-12T04:15:13.469Z,4.01
2023-02-12T04:18:44.019Z,3.89
2023-02-12T04:21:33.257Z,3.86
2023-02-12T04:24:44.686Z,3.87
2023-02-12T04:28:12.041Z,3.96
2023-02-12T04:31:13.259Z,3.93
2023-02-12T04:34:26.480Z,3.90
2023-02-12T04:37:37.739Z,4.06
2023-02-12T04:40:16.638Z,4.01
2023-02-12T04:42:52.852Z,4.04
2023-02-12T04:45:35.191Z,3.86
2023-02-12T04:48:06.656Z,3.71
2023-02-12T04:50:43.710Z,3.59
2023-02-12T04:53:14.258Z,3.53
2023-02-12T04:55:44.757Z,3.61
2023-02-12T04:58:14.808Z,3.63
2023-02-12T05:00:45.358Z,3.53
2023-02-12T05:03:15.397Z,3.49
2023-02-12T05:05:45.433Z,3.45
2023-02-12T05:08:15.426Z,3.43
2023-02-12T05:10:45.503Z,3.42
2023-02-12T05:13:15.504Z,3.35
2023-02-12T05:15:45.541Z,3.40
2023-02-12T05:18:15.588Z,3.40
2023-02-12T05:20:45.631Z,3.38
2023-02-12T05:23:15.608Z,3.32
2023-02-12T05:25:45.628Z,3.32
2023-02-12T05:28:15.719Z,3.23
2023-02-12T05:30:45.907Z,3.16
2023-02-12T05:33:16.003Z,3.11
2023-02-12T05:35:46.098Z,3.02
2023-02-12T05:38:16.098Z,2.97
2023-02-12T05:40:46.118Z,2.92
2023-02-12T05:43:16.240Z,2.91
2023-02-12T05:45:46.256Z,2.87
2023-02-12T05:48:16.340Z,2.83
2023-02-12T05:50:46.411Z,2.80
2023-02-12T05:53:16.433Z,2.81
2023-02-12T05:55:48.580Z,2.84
2023-02-12T05:58:18.654Z,2.87
2023-02-12T06:00:48.757Z,2.87
2023-02-12T06:03:18.777Z,2.87
2023-02-12T06:05:54.298Z,2.86
2023-02-12T06:08:24.607Z,2.85
2023-02-12T06:10:54.611Z,2.82
2023-02-12T06:13:25.766Z,2.76
2023-02-12T06:15:56.229Z,2.75
2023-02-12T06:18:28.836Z,2.73
2023-02-12T06:20:58.367Z,2.76
2023-02-12T06:23:28.461Z,2.73
2023-02-12T06:25:59.426Z,2.72
2023-02-12T06:28:27.197Z,2.72
2023-02-12T06:30:55.623Z,2.78
2023-02-12T06:33:24.284Z,2.85
2023-02-12T06:35:52.810Z,2.91
2023-02-12T06:38:21.635Z,3.01
2023-02-12T06:40:51.617Z,2.97
2023-02-12T06:43:21.683Z,2.96
2023-02-12T06:45:51.755Z,3.07
2023-02-12T06:48:20.392Z,3.06
2023-02-12T06:50:50.394Z,3.11
2023-02-12T06:53:19.116Z,3.15
2023-02-12T06:55:47.559Z,3.20
2023-02-12T06:58:15.986Z,3.17
2023-02-12T07:00:44.539Z,3.20
2023-02-12T07:03:12.926Z,3.21
2023-02-12T07:05:41.557Z,3.13
2023-02-12T07:08:10.241Z,3.03
2023-02-12T07:10:38.391Z,2.97
2023-02-12T07:13:06.930Z,2.95
2023-02-12T07:15:40.628Z,2.95
2023-02-12T07:18:10.761Z,2.92
2023-02-12T07:20:39.133Z,2.89
2023-02-12T07:23:06.492Z,2.91
2023-02-12T07:25:35.118Z,2.93
2023-02-12T07:28:03.397Z,2.92
2023-02-12T07:30:31.825Z,2.91
2023-02-12T07:33:00.070Z,2.91
2023-02-12T07:35:28.514Z,2.92
2023-02-12T07:37:56.887Z,2.95
2023-02-12T07:40:26.094Z,2.99
2023-02-12T07:42:57.164Z,3.01
2023-02-12T07:45:27.422Z,3.02
2023-02-12T07:47:57.479Z,3.06
2023-02-12T07:50:27.559Z,3.09
2023-02-12T07:52:58.336Z,3.19
2023-02-12T07:55:28.403Z,3.18
2023-02-12T07:57:58.492Z,3.19
2023-02-12T08:00:28.555Z,3.22
2023-02-12T08:02:58.539Z,3.26
2023-02-12T08:05:28.860Z,3.35
2023-02-12T08:07:58.861Z,3.42
2023-02-12T08:10:31.410Z,3.47
2023-02-12T08:13:02.378Z,3.53
2023-02-12T08:15:32.409Z,3.57
2023-02-12T08:18:02.538Z,3.64
2023-02-12T08:20:34.978Z,3.71
2023-02-12T08:23:05.185Z,3.81
2023-02-12T08:25:33.523Z,3.86
2023-02-12T08:28:02.063Z,3.90
2023-02-12T08:30:30.553Z,3.94
2023-02-12T08:32:58.941Z,4.01
2023-02-12T08:35:27.903Z,4.03
2023-02-12T08:37:55.957Z,4.09
2023-02-12T08:40:24.430Z,4.12
2023-02-12T08:42:53.600Z,4.13
2023-02-12T08:45:21.380Z,4.14
2023-02-12T08:47:49.968Z,4.16
2023-02-12T08:50:19.979Z,4.28
2023-02-12T08:52:49.987Z,4.34
2023-02-12T08:55:20.019Z,4.32
2023-02-12T08:57:50.041Z,4.31
2023-02-12T09:00:20.925Z,4.32
2023-02-12T09:02:50.964Z,4.35
2023-02-12T09:05:21.115Z,4.38
2023-02-12T09:07:53.863Z,4.37
2023-02-12T09:10:23.865Z,4.37
2023-02-12T09:12:53.849Z,4.42
2023-02-12T09:15:22.413Z,4.46
2023-02-12T09:17:50.871Z,4.51
2023-02-12T09:20:20.902Z,4.51
2023-02-12T09:22:51.008Z,4.56
2023-02-12T09:25:21.060Z,4.62
2023-02-12T09:27:51.437Z,4.71
2023-02-12T09:30:19.818Z,4.82
2023-02-12T09:32:48.089Z,4.83
2023-02-12T09:35:17.057Z,4.92
2023-02-12T09:37:47.140Z,5.02
2023-02-12T09:40:45.659Z,5.15
2023-02-12T09:43:55.718Z,5.26
2023-02-12T09:46:39.686Z,5.35
2023-02-12T09:49:26.519Z,5.48
2023-02-12T09:51:59.577Z,5.69
2023-02-12T09:54:39.821Z,5.87
2023-02-12T09:57:34.632Z,5.92
2023-02-12T10:00:11.141Z,5.89
2023-02-12T10:02:41.731Z,5.91
2023-02-12T10:05:32.253Z,6.08
2023-02-12T10:08:48.606Z,6.01
2023-02-12T10:11:34.452Z,5.88
2023-02-12T10:14:57.655Z,5.98
2023-02-12T10:17:50.284Z,5.99
2023-02-12T10:20:54.980Z,6.01
2023-02-12T10:24:26.926Z,5.93
2023-02-12T10:27:14.555Z,5.88
2023-02-12T10:29:49.354Z,5.94
2023-02-12T10:32:34.040Z,5.92
2023-02-12T10:35:17.638Z,6.14
2023-02-12T10:38:22.701Z,6.14
2023-02-12T10:40:51.539Z,6.25
2023-02-12T10:43:19.754Z,6.16
2023-02-12T10:45:48.998Z,6.11
2023-02-12T10:48:39.399Z,6.36
2023-02-12T10:51:09.315Z,6.04
2023-02-12T10:53:43.844Z,6.02
2023-02-12T10:56:25.730Z,6.01
2023-02-12T10:59:01.444Z,5.91
2023-02-12T11:01:38.857Z,5.86
2023-02-12T11:04:23.848Z,5.83
2023-02-12T11:07:09.931Z,5.78
2023-02-12T11:09:45.829Z,5.81
2023-02-12T11:12:48.158Z,5.79
2023-02-12T11:15:26.470Z,5.91
2023-02-12T11:18:09.205Z,6.16
2023-02-12T11:20:52.955Z,6.25
2023-02-12T11:23:45.248Z,6.38
2023-02-12T11:26:18.325Z,6.42
2023-02-12T11:29:27.094Z,6.47
2023-02-12T11:32:12.422Z,6.56
2023-02-12T11:34:42.670Z,6.65
2023-02-12T11:37:21.125Z,6.85
2023-02-12T11:39:51.828Z,6.91
2023-02-12T11:42:37.533Z,7.05
2023-02-12T11:45:06.167Z,7.16
2023-02-12T11:47:40.978Z,7.02
2023-02-12T11:50:35.056Z,6.89
2023-02-12T11:53:10.068Z,6.78
2023-02-12T11:55:41.843Z,6.73
2023-02-12T11:58:27.454Z,6.73
2023-02-12T12:01:19.418Z,6.61
2023-02-12T12:04:17.547Z,6.46
2023-02-12T12:07:02.446Z,6.60
2023-02-12T12:10:20.075Z,6.79
2023-02-12T12:13:25.668Z,7.00
2023-02-12T12:16:39.113Z,6.97
2023-02-12T12:20:02.480Z,7.04
2023-02-12T12:22:43.023Z,7.10
2023-02-12T12:25:27.609Z,7.12
2023-02-12T12:28:32.559Z,7.19
2023-02-12T12:31:26.124Z,7.37
2023-02-12T12:34:13.515Z,7.30
2023-02-12T12:37:12.656Z,7.47
2023-02-12T12:39:54.496Z,7.46
2023-02-12T12:43:20.996Z,7.28
2023-02-12T12:46:22.303Z,7.27
2023-02-12T12:49:38.820Z,7.27
2023-02-12T12:52:48.849Z,7.34
2023-02-12T12:55:51.290Z,7.11
2023-02-12T12:58:58.252Z,7.05
2023-02-12T13:01:52.308Z,7.04
2023-02-12T13:04:41.564Z,7.21
2023-02-12T13:07:41.496Z,7.37
2023-02-12T13:10:22.530Z,7.59
2023-02-12T13:13:13.522Z,7.33
2023-02-12T13:16:41.118Z,7.43
2023-02-12T13:19:59.476Z,7.23
2023-02-12T13:23:11.989Z,7.51
2023-02-12T13:26:13.509Z,7.38
2023-02-12T13:29:16.719Z,7.23
2023-02-12T13:32:18.226Z,7.37
2023-02-12T13:34:50.846Z,7.26
2023-02-12T13:37:46.595Z,7.36
2023-02-12T13:40:28.579Z,7.65
2023-02-12T13:43:41.541Z,7.58
2023-02-12T13:46:52.465Z,7.37
2023-02-12T13:49:46.383Z,7.29
2023-02-12T13:52:52.923Z,7.32
2023-02-12T13:56:06.096Z,7.36
2023-02-12T13:58:37.469Z,7.48
2023-02-12T14:01:33.707Z,7.46
2023-02-12T14:04:43.587Z,7.45
2023-02-12T14:07:17.235Z,7.72
2023-02-12T14:09:50.250Z,7.82
2023-02-12T14:12:26.343Z,8.29
2023-02-12T14:15:37.754Z,8.35
2023-02-12T14:18:35.107Z,8.43
2023-02-12T14:21:14.010Z,8.60
2023-02-12T14:23:47.338Z,8.88
2023-02-12T14:26:23.763Z,9.17
2023-02-12T14:29:03.180Z,9.34
2023-02-12T14:31:39.709Z,9.31
2023-02-12T14:34:09.648Z,9.10
2023-02-12T14:36:44.736Z,9.03
2023-02-12T14:39:24.658Z,8.81
2023-02-12T14:42:18.605Z,8.58
2023-02-12T14:45:41.382Z,8.31
2023-02-12T14:49:06.202Z,8.29
2023-02-12T14:51:50.842Z,8.14
2023-02-12T14:54:54.918Z,8.03
2023-02-12T14:57:41.167Z,7.76
2023-02-12T15:00:16.962Z,7.65
2023-02-12T15:03:14.599Z,7.49
2023-02-12T15:06:09.556Z,7.47
2023-02-12T15:09:01.375Z,7.40
2023-02-12T15:11:47.214Z,7.45
2023-02-12T15:14:30.260Z,7.23
2023-02-12T15:17:30.988Z,7.22
2023-02-12T15:21:02.279Z,7.06
2023-02-12T15:23:39.994Z,7.01
2023-02-12T15:26:24.277Z,6.95
2023-02-12T15:28:56.542Z,6.98
2023-02-12T15:31:33.608Z,6.88
2023-02-12T15:34:05.967Z,6.78
2023-02-12T15:36:36.506Z,6.65
2023-02-12T15:39:09.709Z,6.65
2023-02-12T15:41:41.937Z,6.62
2023-02-12T15:44:33.305Z,6.58
2023-02-12T15:47:14.707Z,6.49
2023-02-12T15:49:44.896Z,6.41
2023-02-12T15:52:35.803Z,6.28
2023-02-12T15:55:18.994Z,6.16
2023-02-12T15:58:00.526Z,6.07
2023-02-12T16:00:47.788Z,5.99
2023-02-12T16:03:41.146Z,5.91
2023-02-12T16:06:16.842Z,5.86
2023-02-12T16:08:58.640Z,5.77
2023-02-12T16:11:32.758Z,5.72
2023-02-12T16:14:46.587Z,5.66
2023-02-12T16:17:32.887Z,5.60
2023-02-12T16:20:20.412Z,5.55
2023-02-12T16:22:52.964Z,5.47
2023-02-12T16:25:33.559Z,5.42
2023-02-12T16:28:29.904Z,5.38
2023-02-12T16:31:15.362Z,5.42
2023-02-12T16:33:54.108Z,5.49
2023-02-12T16:36:26.564Z,5.51
2023-02-12T16:39:08.542Z,5.55
2023-02-12T16:41:57.575Z,5.55
2023-02-12T16:44:31.525Z,5.64
2023-02-12T16:47:02.429Z,5.77
2023-02-12T16:49:30.332Z,5.84
2023-02-12T16:52:30.926Z,5.78
2023-02-12T16:54:58.951Z,5.87
2023-02-12T16:57:29.193Z,6.00
2023-02-12T16:59:59.007Z,5.94
2023-02-12T17:02:28.807Z,5.82
2023-02-12T17:05:01.017Z,5.72
2023-02-12T17:07:31.776Z,5.72
2023-02-12T17:10:03.141Z,5.66
2023-02-12T17:12:32.260Z,5.61
2023-02-12T17:15:05.659Z,5.54
2023-02-12T17:17:35.398Z,5.40
2023-02-12T17:20:06.481Z,5.29
2023-02-12T17:22:36.673Z,5.23
2023-02-12T17:25:06.781Z,5.14
2023-02-12T17:27:38.152Z,5.06
2023-02-12T17:30:10.532Z,5.02
2023-02-12T17:32:39.075Z,5.13
2023-02-12T17:35:59.875Z,5.17
2023-02-12T17:38:28.624Z,5.17
2023-02-12T17:40:57.950Z,5.10
2023-02-12T18:07:20.937Z,4.77
2023-02-12T18:09:51.078Z,4.75
2023-02-12T18:12:21.374Z,4.77
2023-02-12T18:14:51.364Z,4.78
2023-02-12T18:17:21.119Z,4.79
2023-02-12T18:19:51.293Z,4.79
2023-02-12T18:22:22.899Z,4.78
2023-02-12T18:24:51.907Z,4.76
2023-02-12T18:27:21.738Z,4.72
2023-02-12T18:29:51.983Z,4.67
2023-02-12T18:32:21.674Z,4.62
2023-02-12T18:34:52.056Z,4.57
2023-02-12T18:37:22.052Z,4.53
2023-02-12T18:39:51.964Z,4.51
2023-02-12T18:42:22.129Z,4.46
2023-02-12T18:44:51.806Z,4.45
2023-02-12T18:47:22.106Z,4.43
2023-02-12T18:49:51.794Z,4.41
2023-02-12T18:52:21.647Z,4.39
2023-02-12T18:54:53.165Z,4.35
2023-02-12T18:57:22.372Z,4.37
2023-02-12T18:59:52.234Z,4.35
2023-02-12T19:02:22.190Z,4.34
2023-02-12T19:04:51.941Z,4.32
2023-02-12T19:07:21.883Z,4.29
2023-02-12T19:09:52.724Z,4.29
2023-02-12T19:12:22.987Z,4.31
2023-02-12T19:14:52.811Z,4.32
2023-02-12T19:17:22.885Z,4.42
2023-02-12T19:19:52.173Z,4.45
2023-02-12T19:22:19.883Z,4.49
2023-02-12T19:24:51.769Z,4.57
2023-02-12T19:27:19.526Z,4.63
2023-02-12T19:29:47.827Z,4.70
2023-02-12T19:32:16.287Z,4.74
2023-02-12T19:34:46.012Z,4.75
2023-02-12T19:37:13.947Z,4.72
2023-02-12T19:39:41.712Z,4.73
2023-02-12T19:42:17.730Z,4.77
2023-02-12T19:44:46.705Z,4.78
2023-02-12T19:47:16.963Z,4.77
2023-02-12T19:49:46.886Z,4.80
2023-02-12T19:52:16.745Z,4.78
2023-02-12T19:54:46.534Z,4.76
2023-02-12T19:57:16.549Z,4.77
2023-02-12T19:59:46.561Z,4.76
2023-02-12T20:02:17.194Z,4.74
2023-02-12T20:04:47.414Z,4.75
2023-02-12T20:07:17.486Z,4.75
2023-02-12T20:09:52.199Z,4.86
2023-02-12T20:12:22.478Z,4.85
2023-02-12T20:14:55.856Z,4.79
2023-02-12T20:17:25.865Z,4.76
2023-02-12T20:19:55.747Z,4.74
2023-02-12T20:22:25.642Z,4.73
2023-02-12T20:24:55.389Z,4.75
2023-02-12T20:27:25.273Z,4.83
2023-02-12T20:29:55.180Z,4.86
2023-02-12T20:32:24.955Z,4.85
2023-02-12T20:34:54.756Z,4.83
2023-02-12T20:37:24.620Z,4.78
2023-02-12T20:39:53.031Z,4.82
2023-02-12T20:42:21.644Z,4.80
2023-02-12T20:44:49.909Z,4.78
2023-02-12T20:47:18.285Z,4.75
2023-02-12T20:49:46.754Z,4.73
2023-02-12T20:52:15.194Z,4.72
2023-02-12T20:54:46.417Z,4.72
2023-02-12T20:57:17.186Z,4.83
2023-02-12T20:59:44.895Z,4.99
2023-02-12T21:02:16.044Z,4.97
2023-02-12T21:04:43.118Z,4.86
2023-02-12T21:07:12.021Z,4.83
2023-02-12T21:09:40.017Z,4.81
2023-02-12T21:12:12.297Z,4.82
2023-02-12T21:14:40.137Z,4.83
2023-02-12T21:17:08.680Z,4.91
2023-02-12T21:19:37.041Z,4.88
2023-02-12T21:22:05.245Z,4.86
2023-02-12T21:24:34.121Z,4.87
2023-02-12T21:27:02.128Z,4.95
2023-02-12T21:29:33.225Z,4.94
2023-02-12T21:32:03.464Z,4.90
2023-02-12T21:34:33.360Z,4.93
2023-02-12T21:37:03.373Z,4.93
2023-02-12T21:39:33.270Z,4.93
2023-02-12T21:42:05.369Z,4.93
2023-02-12T21:44:35.683Z,4.97
2023-02-12T21:47:07.400Z,5.05
2023-02-12T21:49:36.102Z,5.06
2023-02-12T21:52:08.705Z,5.05
2023-02-12T21:54:38.779Z,5.10
2023-02-12T21:57:07.338Z,5.11
2023-02-12T21:59:35.702Z,5.20
2023-02-12T22:02:05.430Z,5.22
2023-02-12T22:04:32.601Z,5.17
2023-02-12T22:07:03.491Z,5.13
2023-02-12T22:09:32.558Z,5.14
2023-02-12T22:12:00.913Z,5.12
2023-02-12T22:14:29.579Z,5.26
2023-02-12T22:16:58.502Z,5.17
2023-02-12T22:19:26.305Z,5.12
2023-02-12T22:21:54.753Z,5.13
2023-02-12T22:24:23.159Z,5.12
2023-02-12T22:26:51.752Z,5.15
2023-02-12T22:29:22.093Z,5.22
2023-02-12T22:31:51.661Z,5.15
2023-02-12T22:34:20.063Z,5.14
2023-02-12T22:36:48.932Z,5.14
2023-02-12T22:39:18.449Z,5.15
2023-02-12T22:41:49.065Z,5.14
2023-02-12T22:44:21.101Z,5.15
2023-02-12T22:46:50.467Z,5.12
2023-02-12T22:49:19.001Z,5.16
2023-02-12T22:51:48.641Z,5.13
2023-02-12T22:54:20.235Z,5.11
2023-02-12T22:56:52.542Z,5.15
2023-02-12T22:59:22.201Z,5.17
2023-02-12T23:01:51.905Z,5.17
2023-02-12T23:04:22.083Z,5.15
2023-02-12T23:06:52.544Z,5.16
2023-02-12T23:09:21.801Z,5.28
2023-02-12T23:11:51.664Z,5.26
2023-02-12T23:14:21.818Z,5.28
2023-02-12T23:16:51.826Z,5.39
2023-02-12T23:19:21.622Z,5.32
2023-02-12T23:21:51.428Z,5.34
2023-02-12T23:24:21.180Z,5.31
2023-02-12T23:26:51.505Z,5.37
2023-02-12T23:29:19.661Z,5.52
2023-02-12T23:31:48.946Z,5.49
2023-02-12T23:34:17.317Z,5.37
2023-02-12T23:36:45.572Z,5.30
2023-02-12T23:39:14.146Z,5.39
2023-02-12T23:41:42.608Z,5.40
2023-02-12T23:44:11.239Z,5.50
2023-02-12T23:46:39.673Z,5.48
2023-02-12T23:49:08.235Z,5.45
2023-02-12T23:51:36.207Z,5.36
2023-02-12T23:54:04.719Z,5.34
2023-02-12T23:56:33.085Z,5.33
2023-02-12T23:59:01.437Z,5.42
